Bautista Pino — EASK — position and weather

sailwx.info

Track history (hours):
 
Tides and Currents Weather Stations Pressure Air Temp Water Temp Dewpoint Dewpoint Depression Visibility Wind Speed Wind Dir Waves Ship Positions

Bautista Pino

Last reported at 2014-Feb-16 23:13 UTC. Time now 2014-Sep-24 04:28 UTC.
Position N 43°34' W 005°41'.
Warning: this ship's position is months out of date.

Type: Fishing. MMSI: 224181290.

Date/timePositionNaut miles runAvg speedWind from/ knotsBaromVisibWave heightAir tempDewpointWater temp
2014-Feb-16 23:13N 43°34' W 005°41'1 1.7
2014-Feb-16 22:33N 43°33' W 005°42'0 0.0
2014-Feb-16 21:32N 43°33' W 005°42'0 0.0
2014-Feb-16 20:31N 43°33' W 005°42'0 0.0
2014-Feb-16 18:32N 43°33' W 005°42'0 0.0
2014-Feb-16 17:33N 43°33' W 005°42'0 0.0
2014-Feb-16 16:32N 43°33' W 005°42'0 0.0
2014-Feb-16 15:32N 43°33' W 005°42'0 0.0
2014-Feb-16 14:33N 43°33' W 005°42'0 0.0
2014-Feb-16 13:33N 43°33' W 005°42'0 0.0
2014-Feb-16 12:33N 43°33' W 005°42'0 0.0
2014-Feb-16 11:33N 43°33' W 005°42'0 0.0
2014-Feb-16 10:32N 43°33' W 005°42'0 0.0
2014-Feb-16 09:32N 43°33' W 005°42'0 0.0
2014-Feb-16 08:33N 43°33' W 005°42'0 0.0
2014-Feb-16 07:32N 43°33' W 005°42'0 0.0
2014-Feb-16 06:32N 43°33' W 005°42'0 0.0
2014-Feb-16 05:32N 43°33' W 005°42'0 0.0
2014-Feb-16 04:33N 43°33' W 005°42'0 0.0
2014-Feb-16 03:30N 43°33' W 005°42'0 0.0
2014-Feb-16 02:33N 43°33' W 005°42'0 0.0
2014-Feb-16 01:33N 43°33' W 005°42'0 0.0
2014-Feb-16 00:33N 43°33' W 005°42'0 0.0
2014-Feb-15 23:33N 43°33' W 005°42'0 0.0
2014-Feb-15 22:32N 43°33' W 005°42'0 0.0
2014-Feb-15 21:33N 43°33' W 005°42'0 0.0
2014-Feb-15 20:33N 43°33' W 005°42'0 0.0
2014-Feb-15 19:33N 43°33' W 005°42'0 0.0
2014-Feb-15 18:33N 43°33' W 005°42'0 0.0
2014-Feb-15 17:33N 43°33' W 005°42'0 0.0
2014-Feb-15 16:32N 43°33' W 005°42'0 0.0
2014-Feb-15 15:33N 43°33' W 005°42'0 0.0
2014-Feb-15 14:33N 43°33' W 005°42'0 0.0
2014-Feb-15 13:31N 43°33' W 005°42'0 0.0
2014-Feb-15 11:33N 43°33' W 005°42'0 0.0
2014-Feb-15 10:32N 43°33' W 005°42'0 0.0
2014-Feb-15 09:33N 43°33' W 005°42'0 0.0
2014-Feb-15 08:33N 43°33' W 005°42'0 0.0
2014-Feb-15 07:32N 43°33' W 005°42'0 0.0
2014-Feb-15 06:33N 43°33' W 005°42'0 0.0
2014-Feb-15 05:32N 43°33' W 005°42'0 0.0
2014-Feb-15 04:32N 43°33' W 005°42'0 0.0
2014-Feb-15 03:33N 43°33' W 005°42'0 0.0
2014-Feb-15 02:33N 43°33' W 005°42'0 0.0
2014-Feb-15 01:33N 43°33' W 005°42'0 0.0
2014-Feb-15 00:33N 43°33' W 005°42'0 0.0
2014-Feb-14 23:33N 43°33' W 005°42'0 0.0
2014-Feb-14 22:31N 43°33' W 005°42'0 0.0
2014-Feb-14 21:32N 43°33' W 005°42'0 0.0
2014-Feb-14 20:33N 43°33' W 005°42'0 0.0
2014-Feb-14 19:33N 43°33' W 005°42'0 0.0
2014-Feb-14 18:33N 43°33' W 005°42'0 0.0
2014-Feb-14 17:33N 43°33' W 005°42'0 0.1
2014-Feb-14 15:31N 43°33' W 005°42'9 0.4
2014-Feb-13 14:28N 43°39' W 005°31'8 7.8
2014-Feb-13 13:25N 43°34' W 005°41'1 0.2
2014-Feb-13 09:15N 43°33' W 005°42'0 0.0
2014-Feb-13 08:04N 43°33' W 005°42'0 0.0
2014-Feb-13 07:31N 43°33' W 005°42'0 0.0
2014-Feb-13 06:27N 43°33' W 005°42'0 0.0
2014-Feb-13 04:28N 43°33' W 005°42'0 0.0
2014-Feb-13 02:32N 43°33' W 005°42'0 0.0
2014-Feb-13 01:30N 43°33' W 005°42'0 0.0
2014-Feb-13 00:33N 43°33' W 005°42'0 0.0
2014-Feb-12 23:31N 43°33' W 005°42'0 0.0
2014-Feb-12 22:10N 43°33' W 005°42'0 0.0
2014-Feb-12 21:33N 43°33' W 005°42'0 0.0
2014-Feb-12 20:22N 43°33' W 005°42'0 0.0
2014-Feb-12 19:29N 43°33' W 005°42'3 3.3
2014-Feb-12 18:25N 43°35' W 005°37'5 0.3
2014-Feb-11 21:14N 43°38' W 005°31'9 9.3
2014-Feb-11 20:18N 43°33' W 005°41'0 0.1
2014-Feb-11 18:29N 43°33' W 005°42'0 0.0
2014-Feb-11 17:05N 43°33' W 005°42'4 7.2
2014-Feb-11 16:29N 43°35' W 005°36'10 0.4
2014-Feb-10 15:23N 43°43' W 005°30'7 7.5
2014-Feb-10 14:26N 43°38' W 005°37'5 6.1
2014-Feb-10 13:33N 43°34' W 005°41'1 0.5
2014-Feb-10 12:29N 43°33' W 005°42'0 0.0
2014-Feb-10 11:33N 43°33' W 005°42'0 0.0
2014-Feb-10 10:27N 43°33' W 005°42'0 0.0
2014-Feb-10 08:11N 43°33' W 005°42'0 0.0
2014-Feb-10 07:29N 43°33' W 005°42'0 0.0
2014-Feb-10 06:24N 43°33' W 005°42'0 0.0
2014-Feb-10 05:12N 43°33' W 005°42'0 0.0
2014-Feb-10 04:30N 43°33' W 005°42'0 0.0
2014-Feb-10 03:31N 43°33' W 005°42'0 0.0
2014-Feb-10 02:28N 43°33' W 005°42'0 0.0
2014-Feb-10 01:23N 43°33' W 005°42'0 0.0
2014-Feb-10 00:28N 43°33' W 005°42'0 0.0
2014-Feb-09 23:26N 43°33' W 005°42'0 0.0
2014-Feb-09 22:09N 43°33' W 005°42'0 0.0
2014-Feb-09 21:19N 43°33' W 005°42'0 0.0
2014-Feb-09 10:34N 43°33' W 005°42'0 0.0
2014-Feb-09 09:31N 43°33' W 005°42'0 0.0
2014-Feb-09 08:33N 43°33' W 005°42'0 0.0
2014-Feb-09 07:32N 43°33' W 005°42'0 0.0
2014-Feb-09 06:30N 43°33' W 005°42'0 0.0
2014-Feb-09 05:32N 43°33' W 005°42'0 0.0
2014-Feb-09 04:26N 43°33' W 005°42'0 0.0
2014-Feb-09 03:33N 43°33' W 005°42'0 0.0
2014-Feb-09 02:23N 43°33' W 005°42'0 0.0
2014-Feb-09 01:20N 43°33' W 005°42'0 0.0
2014-Feb-09 00:18N 43°33' W 005°42'0 0.0
2014-Feb-08 23:30N 43°33' W 005°42'0 0.0
2014-Feb-08 22:05N 43°33' W 005°42'0 0.0
2014-Feb-08 19:24N 43°33' W 005°42'0 0.0
2014-Feb-08 18:04N 43°33' W 005°42'0 0.0
2014-Feb-08 03:20N 43°33' W 005°42'0 0.0
2014-Feb-07 21:08N 43°33' W 005°42'0 0.2
2014-Feb-07 20:33N 43°33' W 005°42'0 0.2
2014-Feb-07 19:23N 43°33' W 005°42'8 9.7
2014-Feb-07 18:32N 43°38' W 005°32'8 0.4
2014-Feb-07 00:07N 43°34' W 005°41'  
Track history (hours):
 
Tides and Currents Weather Stations Pressure Air Temp Water Temp Dewpoint Dewpoint Depression Visibility Wind Speed Wind Dir Waves Ship Positions

Bautista Pino

Last reported at 2014-Feb-16 23:13 UTC. Time now 2014-Sep-24 04:28 UTC.
Position N 43°34' W 005°41'.
Warning: this ship's position is months out of date.

Type: Fishing. MMSI: 224181290.

Date/timePositionNaut miles runAvg speedWind from/ knotsBaromVisibWave heightAir tempDewpointWater temp
2014-Feb-16 23:13N 43°34' W 005°41'1 1.7
2014-Feb-16 22:33N 43°33' W 005°42'0 0.0
2014-Feb-16 21:32N 43°33' W 005°42'0 0.0
2014-Feb-16 20:31N 43°33' W 005°42'0 0.0
2014-Feb-16 18:32N 43°33' W 005°42'0 0.0
2014-Feb-16 17:33N 43°33' W 005°42'0 0.0
2014-Feb-16 16:32N 43°33' W 005°42'0 0.0
2014-Feb-16 15:32N 43°33' W 005°42'0 0.0
2014-Feb-16 14:33N 43°33' W 005°42'0 0.0
2014-Feb-16 13:33N 43°33' W 005°42'0 0.0
2014-Feb-16 12:33N 43°33' W 005°42'0 0.0
2014-Feb-16 11:33N 43°33' W 005°42'0 0.0
2014-Feb-16 10:32N 43°33' W 005°42'0 0.0
2014-Feb-16 09:32N 43°33' W 005°42'0 0.0
2014-Feb-16 08:33N 43°33' W 005°42'0 0.0
2014-Feb-16 07:32N 43°33' W 005°42'0 0.0
2014-Feb-16 06:32N 43°33' W 005°42'0 0.0
2014-Feb-16 05:32N 43°33' W 005°42'0 0.0
2014-Feb-16 04:33N 43°33' W 005°42'0 0.0
2014-Feb-16 03:30N 43°33' W 005°42'0 0.0
2014-Feb-16 02:33N 43°33' W 005°42'0 0.0
2014-Feb-16 01:33N 43°33' W 005°42'0 0.0
2014-Feb-16 00:33N 43°33' W 005°42'0 0.0
2014-Feb-15 23:33N 43°33' W 005°42'0 0.0
2014-Feb-15 22:32N 43°33' W 005°42'0 0.0
2014-Feb-15 21:33N 43°33' W 005°42'0 0.0
2014-Feb-15 20:33N 43°33' W 005°42'0 0.0
2014-Feb-15 19:33N 43°33' W 005°42'0 0.0
2014-Feb-15 18:33N 43°33' W 005°42'0 0.0
2014-Feb-15 17:33N 43°33' W 005°42'0 0.0
2014-Feb-15 16:32N 43°33' W 005°42'0 0.0
2014-Feb-15 15:33N 43°33' W 005°42'0 0.0
2014-Feb-15 14:33N 43°33' W 005°42'0 0.0
2014-Feb-15 13:31N 43°33' W 005°42'0 0.0
2014-Feb-15 11:33N 43°33' W 005°42'0 0.0
2014-Feb-15 10:32N 43°33' W 005°42'0 0.0
2014-Feb-15 09:33N 43°33' W 005°42'0 0.0
2014-Feb-15 08:33N 43°33' W 005°42'0 0.0
2014-Feb-15 07:32N 43°33' W 005°42'0 0.0
2014-Feb-15 06:33N 43°33' W 005°42'0 0.0
2014-Feb-15 05:32N 43°33' W 005°42'0 0.0
2014-Feb-15 04:32N 43°33' W 005°42'0 0.0
2014-Feb-15 03:33N 43°33' W 005°42'0 0.0
2014-Feb-15 02:33N 43°33' W 005°42'0 0.0
2014-Feb-15 01:33N 43°33' W 005°42'0 0.0
2014-Feb-15 00:33N 43°33' W 005°42'0 0.0
2014-Feb-14 23:33N 43°33' W 005°42'0 0.0
2014-Feb-14 22:31N 43°33' W 005°42'0 0.0
2014-Feb-14 21:32N 43°33' W 005°42'0 0.0
2014-Feb-14 20:33N 43°33' W 005°42'0 0.0
2014-Feb-14 19:33N 43°33' W 005°42'0 0.0
2014-Feb-14 18:33N 43°33' W 005°42'0 0.0
2014-Feb-14 17:33N 43°33' W 005°42'0 0.1
2014-Feb-14 15:31N 43°33' W 005°42'9 0.4
2014-Feb-13 14:28N 43°39' W 005°31'8 7.8
2014-Feb-13 13:25N 43°34' W 005°41'1 0.2
2014-Feb-13 09:15N 43°33' W 005°42'0 0.0
2014-Feb-13 08:04N 43°33' W 005°42'0 0.0
2014-Feb-13 07:31N 43°33' W 005°42'0 0.0
2014-Feb-13 06:27N 43°33' W 005°42'0 0.0
2014-Feb-13 04:28N 43°33' W 005°42'0 0.0
2014-Feb-13 02:32N 43°33' W 005°42'0 0.0
2014-Feb-13 01:30N 43°33' W 005°42'0 0.0
2014-Feb-13 00:33N 43°33' W 005°42'0 0.0
2014-Feb-12 23:31N 43°33' W 005°42'0 0.0
2014-Feb-12 22:10N 43°33' W 005°42'0 0.0
2014-Feb-12 21:33N 43°33' W 005°42'0 0.0
2014-Feb-12 20:22N 43°33' W 005°42'0 0.0
2014-Feb-12 19:29N 43°33' W 005°42'3 3.3
2014-Feb-12 18:25N 43°35' W 005°37'5 0.3
2014-Feb-11 21:14N 43°38' W 005°31'9 9.3
2014-Feb-11 20:18N 43°33' W 005°41'0 0.1
2014-Feb-11 18:29N 43°33' W 005°42'0 0.0
2014-Feb-11 17:05N 43°33' W 005°42'4 7.2
2014-Feb-11 16:29N 43°35' W 005°36'10 0.4
2014-Feb-10 15:23N 43°43' W 005°30'7 7.5
2014-Feb-10 14:26N 43°38' W 005°37'5 6.1
2014-Feb-10 13:33N 43°34' W 005°41'1 0.5
2014-Feb-10 12:29N 43°33' W 005°42'0 0.0
2014-Feb-10 11:33N 43°33' W 005°42'0 0.0
2014-Feb-10 10:27N 43°33' W 005°42'0 0.0
2014-Feb-10 08:11N 43°33' W 005°42'0 0.0
2014-Feb-10 07:29N 43°33' W 005°42'0 0.0
2014-Feb-10 06:24N 43°33' W 005°42'0 0.0
2014-Feb-10 05:12N 43°33' W 005°42'0 0.0
2014-Feb-10 04:30N 43°33' W 005°42'0 0.0
2014-Feb-10 03:31N 43°33' W 005°42'0 0.0
2014-Feb-10 02:28N 43°33' W 005°42'0 0.0
2014-Feb-10 01:23N 43°33' W 005°42'0 0.0
2014-Feb-10 00:28N 43°33' W 005°42'0 0.0
2014-Feb-09 23:26N 43°33' W 005°42'0 0.0
2014-Feb-09 22:09N 43°33' W 005°42'0 0.0
2014-Feb-09 21:19N 43°33' W 005°42'0 0.0
2014-Feb-09 10:34N 43°33' W 005°42'0 0.0
2014-Feb-09 09:31N 43°33' W 005°42'0 0.0
2014-Feb-09 08:33N 43°33' W 005°42'0 0.0
2014-Feb-09 07:32N 43°33' W 005°42'0 0.0
2014-Feb-09 06:30N 43°33' W 005°42'0 0.0
2014-Feb-09 05:32N 43°33' W 005°42'0 0.0
2014-Feb-09 04:26N 43°33' W 005°42'0 0.0
2014-Feb-09 03:33N 43°33' W 005°42'0 0.0
2014-Feb-09 02:23N 43°33' W 005°42'0 0.0
2014-Feb-09 01:20N 43°33' W 005°42'0 0.0
2014-Feb-09 00:18N 43°33' W 005°42'0 0.0
2014-Feb-08 23:30N 43°33' W 005°42'0 0.0
2014-Feb-08 22:05N 43°33' W 005°42'0 0.0
2014-Feb-08 19:24N 43°33' W 005°42'0 0.0
2014-Feb-08 18:04N 43°33' W 005°42'0 0.0
2014-Feb-08 03:20N 43°33' W 005°42'0 0.0
2014-Feb-07 21:08N 43°33' W 005°42'0 0.2
2014-Feb-07 20:33N 43°33' W 005°42'0 0.2
2014-Feb-07 19:23N 43°33' W 005°42'8 9.7
2014-Feb-07 18:32N 43°38' W 005°32'8 0.4
2014-Feb-07 00:07N 43°34' W 005°41'  

Dump ship's entire track history